Time;durP1;ratioP1;P1;durP2;ratioP2;P2;SDS_P1;SDS_P2;PMS_P1;PMS_P2;Temp;Humidity;BMP_temperature;BMP_pressure;BME280_temperature;BME280_humidity;BME280_pressure;Samples;Min_cycle;Max_cycle;Signal;HPM_P1;HPM_P2
2021/10/07 00:00:43;;;;;;;5.78;4.18;;;10.50;99.90;;;;;;4974286;28;20483;-72
2021/10/07 00:03:10;;;;;;;4.95;3.63;;;10.50;99.90;;;;;;4973449;28;20464;-73
2021/10/07 00:05:36;;;;;;;3.85;3.45;;;10.60;99.90;;;;;;4974002;28;20038;-74
2021/10/07 00:08:03;;;;;;;7.53;3.95;;;10.50;99.90;;;;;;4956292;28;20042;-73
2021/10/07 00:10:29;;;;;;;5.28;4.55;;;10.60;99.90;;;;;;4956156;28;20077;-73
2021/10/07 00:12:56;;;;;;;7.35;4.40;;;10.60;99.90;;;;;;4973593;28;20058;-73
2021/10/07 00:15:22;;;;;;;5.88;4.32;;;10.60;99.90;;;;;;4973122;28;20057;-74
2021/10/07 00:17:50;;;;;;;6.60;4.75;;;10.60;99.90;;;;;;4956275;28;20034;-73
2021/10/07 00:20:17;;;;;;;6.53;4.25;;;10.60;99.90;;;;;;4984766;28;20037;-72
2021/10/07 00:22:45;;;;;;;6.13;4.45;;;10.60;99.90;;;;;;4984698;28;20468;-73
2021/10/07 00:25:14;;;;;;;4.72;4.20;;;10.60;99.90;;;;;;4973509;28;20574;-73
2021/10/07 00:27:41;;;;;;;6.20;4.28;;;10.60;99.90;;;;;;4956063;28;20365;-72
2021/10/07 00:30:21;;;;;;;4.90;4.40;;;10.50;99.90;;;;;;4973401;28;20035;-73
2021/10/07 00:35:38;;;;;;;5.47;4.47;;;10.50;99.90;;;;;;4973605;28;20030;-73
2021/10/07 00:40:50;;;;;;;6.32;4.25;;;10.50;99.90;;;;;;4973194;28;20396;-72
2021/10/07 00:43:16;;;;;;;6.53;4.35;;;10.50;99.90;;;;;;4972435;28;20045;-73
2021/10/07 00:45:50;;;;;;;5.97;4.85;;;10.60;99.90;;;;;;4973231;28;20043;-73
2021/10/07 00:48:16;;;;;;;6.50;4.72;;;10.60;99.90;;;;;;4972624;28;20035;-73
2021/10/07 00:50:42;;;;;;;6.95;4.75;;;10.60;99.90;;;;;;4972907;28;20034;-73
2021/10/07 00:53:08;;;;;;;5.80;4.60;;;10.70;99.90;;;;;;4972679;28;20050;-72
2021/10/07 00:55:35;;;;;;;6.80;4.25;;;10.60;99.90;;;;;;4972219;28;20231;-73
2021/10/07 00:58:02;;;;;;;5.22;4.18;;;10.60;99.90;;;;;;4972023;28;20043;-72
2021/10/07 01:00:28;;;;;;;5.70;4.35;;;10.60;99.90;;;;;;4972695;28;20035;-72
2021/10/07 01:02:54;;;;;;;5.15;4.65;;;10.60;99.90;;;;;;4982997;28;20427;-72
2021/10/07 01:05:22;;;;;;;6.68;4.57;;;10.50;99.90;;;;;;4979284;28;20046;-72
2021/10/07 01:07:49;;;;;;;4.95;4.45;;;10.60;99.90;;;;;;4974839;28;20041;-72
2021/10/07 01:10:15;;;;;;;6.78;5.35;;;10.60;99.90;;;;;;4976182;28;20043;-73
2021/10/07 01:12:41;;;;;;;4.72;4.30;;;10.50;99.90;;;;;;4976075;28;20030;-72
2021/10/07 01:15:08;;;;;;;6.63;5.80;;;10.60;99.90;;;;;;4976160;28;20260;-71
2021/10/07 01:17:34;;;;;;;6.97;6.28;;;10.60;99.90;;;;;;4976154;28;20027;-71
2021/10/07 01:20:05;;;;;;;8.63;5.93;;;10.60;99.90;;;;;;4976592;28;20027;-71
2021/10/07 01:22:31;;;;;;;7.30;6.13;;;10.60;99.90;;;;;;4986257;28;20046;-72
2021/10/07 01:24:59;;;;;;;7.15;5.85;;;10.70;99.90;;;;;;4984593;28;20034;-72
2021/10/07 01:27:27;;;;;;;9.13;6.95;;;10.70;99.90;;;;;;4958490;28;20034;-72
2021/10/07 01:29:56;;;;;;;7.57;6.88;;;10.70;99.90;;;;;;4976168;28;20042;-72
2021/10/07 01:32:23;;;;;;;8.15;7.45;;;10.70;99.90;;;;;;4974877;28;20055;-72
2021/10/07 01:34:49;;;;;;;9.80;7.57;;;10.70;99.90;;;;;;4976147;28;20068;-72
2021/10/07 01:37:16;;;;;;;9.00;6.72;;;10.70;99.90;;;;;;4976571;28;20480;-72
2021/10/07 01:39:42;;;;;;;7.28;6.13;;;10.60;99.90;;;;;;4976054;28;20440;-72
2021/10/07 01:42:09;;;;;;;7.75;7.05;;;10.60;99.90;;;;;;4975613;28;20484;-72
2021/10/07 01:44:35;;;;;;;9.68;7.13;;;10.50;99.90;;;;;;4975464;28;20038;-72
2021/10/07 01:47:02;;;;;;;7.20;6.60;;;10.50;99.90;;;;;;4975703;28;20051;-72
2021/10/07 01:49:28;;;;;;;7.65;6.85;;;10.50;99.90;;;;;;4975513;28;20034;-72
2021/10/07 01:51:54;;;;;;;12.18;7.57;;;10.50;99.90;;;;;;4975900;28;20091;-72
2021/10/07 01:54:21;;;;;;;10.20;8.15;;;10.50;99.90;;;;;;4975021;28;20053;-72
2021/10/07 01:56:47;;;;;;;12.27;8.85;;;10.50;99.90;;;;;;4959037;28;20042;-72
2021/10/07 01:59:13;;;;;;;10.65;9.75;;;10.50;99.90;;;;;;4976743;28;20035;-72
2021/10/07 02:01:39;;;;;;;9.95;8.98;;;10.50;99.90;;;;;;4975387;28;20468;-71
2021/10/07 02:04:06;;;;;;;10.05;9.05;;;10.50;99.90;;;;;;4976250;28;20384;-72
2021/10/07 02:06:32;;;;;;;9.65;8.82;;;10.50;99.90;;;;;;4958327;28;20046;-72
2021/10/07 02:08:59;;;;;;;12.15;10.98;;;10.50;99.90;;;;;;4975404;28;20045;-72
2021/10/07 02:11:25;;;;;;;11.80;10.88;;;10.50;99.90;;;;;;4975429;28;20035;-74
2021/10/07 02:13:51;;;;;;;12.30;10.88;;;10.50;99.90;;;;;;4975671;28;20043;-73
2021/10/07 02:16:17;;;;;;;13.43;12.15;;;10.50;99.90;;;;;;4974980;28;20038;-74
2021/10/07 02:18:44;;;;;;;14.18;12.82;;;10.50;99.90;;;;;;4975383;28;20038;-73
2021/10/07 02:21:10;;;;;;;13.52;12.35;;;10.50;99.90;;;;;;4957608;28;20054;-73
2021/10/07 02:23:36;;;;;;;14.43;13.18;;;10.50;99.90;;;;;;4975069;28;20042;-74
2021/10/07 02:26:03;;;;;;;15.40;13.75;;;10.50;99.90;;;;;;4975232;28;20042;-73
2021/10/07 02:28:29;;;;;;;18.48;13.57;;;10.50;99.90;;;;;;4974844;28;20030;-73
2021/10/07 02:30:57;;;;;;;16.70;12.75;;;10.50;99.90;;;;;;4974610;28;20480;-73
2021/10/07 02:33:25;;;;;;;15.27;13.95;;;10.50;99.90;;;;;;4974502;28;20039;-73
2021/10/07 02:35:51;;;;;;;14.38;12.95;;;10.50;99.90;;;;;;4957862;28;20042;-73
2021/10/07 02:38:17;;;;;;;13.13;11.93;;;10.50;99.90;;;;;;4974314;28;20455;-74
2021/10/07 02:40:44;;;;;;;13.70;12.38;;;10.50;99.90;;;;;;4975360;28;20023;-73
2021/10/07 02:43:10;;;;;;;12.48;11.45;;;10.50;99.90;;;;;;4974834;28;20035;-73
2021/10/07 02:45:36;;;;;;;12.23;10.80;;;10.50;99.90;;;;;;4956698;28;20054;-73
2021/10/07 02:48:02;;;;;;;12.30;11.25;;;10.50;99.90;;;;;;4974957;28;20392;-73
2021/10/07 02:50:29;;;;;;;11.05;10.10;;;10.50;99.90;;;;;;4973488;28;20053;-72
2021/10/07 02:52:55;;;;;;;12.40;11.27;;;10.50;99.90;;;;;;4974634;28;20046;-71
2021/10/07 02:55:22;;;;;;;12.00;10.90;;;10.50;99.90;;;;;;4974496;28;20042;-72
2021/10/07 02:57:48;;;;;;;12.15;11.15;;;10.50;99.90;;;;;;4974405;28;20031;-71
2021/10/07 03:00:18;;;;;;;11.60;10.35;;;10.50;99.90;;;;;;4974502;28;20034;-74
2021/10/07 03:02:44;;;;;;;12.38;10.60;;;10.50;99.90;;;;;;4974138;28;20055;-73
2021/10/07 03:05:13;;;;;;;12.38;10.55;;;10.50;99.90;;;;;;4974355;28;20053;-73
2021/10/07 03:07:40;;;;;;;13.32;12.00;;;10.50;99.90;;;;;;4974351;28;20061;-73
2021/10/07 03:10:09;;;;;;;11.30;10.38;;;10.50;99.90;;;;;;4973419;28;20392;-72
2021/10/07 03:12:36;;;;;;;12.25;11.13;;;10.50;99.90;;;;;;4974064;28;20034;-72
2021/10/07 03:15:02;;;;;;;12.00;11.07;;;10.50;99.90;;;;;;4974556;28;20042;-73
2021/10/07 03:17:29;;;;;;;12.23;11.15;;;10.50;99.90;;;;;;4974170;28;20034;-74
2021/10/07 03:19:55;;;;;;;10.38;9.68;;;10.50;99.90;;;;;;4973771;28;20420;-74
2021/10/07 03:22:21;;;;;;;12.93;11.80;;;10.50;99.90;;;;;;4973851;28;20035;-74
2021/10/07 03:24:51;;;;;;;11.40;10.35;;;10.50;99.90;;;;;;4972013;28;20039;-75
2021/10/07 03:27:17;;;;;;;12.18;11.18;;;10.50;99.90;;;;;;4974155;28;20035;-72
2021/10/07 03:29:44;;;;;;;11.48;10.48;;;10.50;99.90;;;;;;4973717;28;20023;-75
2021/10/07 03:32:10;;;;;;;14.10;12.43;;;10.50;99.90;;;;;;4973884;28;20480;-75
2021/10/07 03:34:36;;;;;;;12.38;11.15;;;10.50;99.90;;;;;;4973363;28;20041;-75
2021/10/07 03:37:02;;;;;;;12.98;11.88;;;10.50;99.90;;;;;;4973493;28;20049;-75
2021/10/07 03:39:29;;;;;;;13.82;12.57;;;10.50;99.90;;;;;;4973373;28;20051;-75
2021/10/07 03:41:55;;;;;;;13.15;12.05;;;10.50;99.90;;;;;;4973732;28;20026;-75
2021/10/07 03:44:21;;;;;;;13.48;12.35;;;10.50;99.90;;;;;;4973515;28;20039;-74
2021/10/07 03:46:48;;;;;;;16.73;15.18;;;10.50;99.90;;;;;;4973456;28;20073;-75
2021/10/07 03:49:14;;;;;;;16.88;15.30;;;10.50;99.90;;;;;;4974084;28;20023;-75
2021/10/07 03:51:40;;;;;;;16.02;14.93;;;10.50;99.90;;;;;;4973045;28;20035;-75
2021/10/07 03:54:06;;;;;;;18.00;16.52;;;10.50;99.90;;;;;;4973681;28;20031;-75
2021/10/07 03:56:32;;;;;;;18.75;17.35;;;10.50;99.90;;;;;;4973071;28;20035;-75
2021/10/07 03:58:59;;;;;;;18.63;17.10;;;10.50;99.90;;;;;;4974014;28;20046;-75
2021/10/07 04:01:25;;;;;;;19.67;18.20;;;10.50;99.90;;;;;;4973014;28;20487;-75
2021/10/07 04:03:51;;;;;;;22.85;20.63;;;10.50;99.90;;;;;;4973325;28;20039;-76
2021/10/07 04:06:17;;;;;;;24.42;22.23;;;10.60;99.90;;;;;;4973490;28;20043;-75
2021/10/07 04:08:43;;;;;;;21.33;19.85;;;10.60;99.90;;;;;;4973282;28;20491;-75
2021/10/07 04:11:10;;;;;;;24.38;21.83;;;10.50;99.90;;;;;;4973523;28;20034;-75
2021/10/07 04:13:37;;;;;;;22.40;20.70;;;10.50;99.90;;;;;;4973257;28;20038;-75
2021/10/07 04:16:03;;;;;;;24.38;22.20;;;10.50;99.90;;;;;;4973106;28;20045;-75
2021/10/07 04:18:30;;;;;;;23.20;20.60;;;10.50;99.90;;;;;;4954538;28;20483;-76
2021/10/07 04:20:56;;;;;;;21.73;19.95;;;10.50;99.90;;;;;;4973261;28;20103;-76
2021/10/07 04:23:22;;;;;;;24.40;21.27;;;10.50;99.90;;;;;;4972378;28;20042;-75
2021/10/07 04:25:48;;;;;;;22.90;21.10;;;10.50;99.90;;;;;;4976518;28;20037;-75
2021/10/07 04:28:15;;;;;;;21.92;19.95;;;10.50;99.90;;;;;;4972067;28;20042;-75
2021/10/07 04:30:42;;;;;;;22.55;20.65;;;10.50;99.90;;;;;;4972038;28;20039;-75
2021/10/07 04:33:10;;;;;;;22.80;20.90;;;10.50;99.90;;;;;;4973841;28;20039;-75
2021/10/07 04:35:37;;;;;;;20.90;19.40;;;10.50;99.90;;;;;;4973113;28;20039;-75
2021/10/07 04:38:04;;;;;;;22.88;20.83;;;10.50;99.90;;;;;;4973757;28;20035;-75
2021/10/07 04:40:30;;;;;;;23.88;22.02;;;10.50;99.90;;;;;;4973608;28;20023;-74
2021/10/07 04:42:57;;;;;;;23.42;21.73;;;10.60;99.90;;;;;;4976001;28;20035;-76
2021/10/07 04:45:25;;;;;;;24.95;23.02;;;10.60;99.90;;;;;;4959911;28;20034;-77
2021/10/07 04:47:51;;;;;;;23.73;21.60;;;10.60;99.90;;;;;;4987652;28;20491;-77
2021/10/07 04:50:17;;;;;;;23.45;21.75;;;10.60;99.90;;;;;;4978221;28;20041;-77
2021/10/07 04:52:44;;;;;;;23.50;21.52;;;10.60;99.90;;;;;;4978300;28;20026;-77
2021/10/07 04:55:10;;;;;;;24.98;22.73;;;10.60;99.90;;;;;;4981190;28;20039;-76
2021/10/07 04:57:37;;;;;;;24.63;22.83;;;10.60;99.90;;;;;;4962695;28;20035;-76
2021/10/07 05:00:05;;;;;;;26.58;24.52;;;10.70;99.90;;;;;;4978177;28;20038;-76
2021/10/07 05:02:34;;;;;;;26.58;24.58;;;10.80;99.90;;;;;;4976294;28;20058;-75
2021/10/07 05:05:00;;;;;;;25.65;23.45;;;10.80;99.90;;;;;;4976896;28;20031;-76
2021/10/07 05:07:27;;;;;;;25.48;23.52;;;10.80;99.90;;;;;;4976410;28;20035;-75
2021/10/07 05:09:53;;;;;;;24.80;22.70;;;10.80;99.90;;;;;;4976186;28;20035;-75
2021/10/07 05:12:19;;;;;;;27.23;24.90;;;10.70;99.90;;;;;;4976458;28;20392;-75
2021/10/07 05:14:45;;;;;;;26.90;24.65;;;10.80;99.90;;;;;;4976185;28;20042;-76
2021/10/07 05:17:12;;;;;;;22.70;20.60;;;10.70;99.90;;;;;;4977108;28;20066;-76
2021/10/07 05:19:38;;;;;;;25.83;23.83;;;10.70;99.90;;;;;;4976714;28;20027;-76
2021/10/07 05:22:04;;;;;;;25.08;23.20;;;10.70;99.90;;;;;;4976372;28;20035;-76
2021/10/07 05:24:30;;;;;;;27.40;25.20;;;10.60;99.90;;;;;;4976161;28;20022;-76
2021/10/07 05:26:57;;;;;;;27.40;25.17;;;10.60;99.90;;;;;;4976574;28;20035;-76
2021/10/07 05:29:23;;;;;;;29.38;26.90;;;10.60;99.90;;;;;;4975485;28;20408;-76
2021/10/07 05:31:49;;;;;;;28.77;26.67;;;10.60;99.90;;;;;;4975911;28;20038;-76
2021/10/07 05:34:16;;;;;;;28.00;26.02;;;10.60;99.90;;;;;;4976256;28;20091;-76
2021/10/07 05:36:43;;;;;;;32.58;29.80;;;10.50;99.90;;;;;;4976071;28;20031;-77
2021/10/07 05:39:10;;;;;;;27.42;25.27;;;10.50;99.90;;;;;;4982495;28;20042;-77
2021/10/07 05:41:36;;;;;;;29.95;27.40;;;10.50;99.90;;;;;;4976487;28;20031;-77
2021/10/07 05:44:03;;;;;;;28.27;25.85;;;10.50;99.90;;;;;;4958830;28;20041;-77
2021/10/07 05:46:29;;;;;;;28.00;25.77;;;10.50;99.90;;;;;;4975687;28;20039;-77
2021/10/07 05:48:55;;;;;;;27.35;24.77;;;10.50;99.90;;;;;;4957896;28;20058;-77
2021/10/07 05:51:21;;;;;;;24.80;23.08;;;10.50;99.90;;;;;;4975635;28;20035;-77
2021/10/07 05:53:48;;;;;;;28.00;25.75;;;10.60;99.90;;;;;;4976035;28;20464;-77
2021/10/07 05:56:14;;;;;;;29.48;26.92;;;10.60;99.90;;;;;;4976540;28;20030;-78
2021/10/07 05:58:40;;;;;;;33.03;30.48;;;10.60;99.90;;;;;;4975335;28;20038;-77
2021/10/07 06:01:06;;;;;;;31.85;29.15;;;10.60;99.90;;;;;;4975624;28;20026;-77
2021/10/07 06:03:33;;;;;;;32.13;29.38;;;10.60;99.90;;;;;;4975341;28;20074;-77
2021/10/07 06:05:59;;;;;;;32.55;29.95;;;10.60;99.90;;;;;;4975890;28;20038;-77
2021/10/07 06:08:25;;;;;;;31.42;28.70;;;10.60;99.90;;;;;;4975373;28;20097;-77
2021/10/07 06:10:51;;;;;;;30.85;28.23;;;10.70;99.90;;;;;;4974408;28;20039;-77
2021/10/07 06:13:17;;;;;;;31.02;28.52;;;10.70;99.90;;;;;;4975144;28;20396;-77
2021/10/07 06:15:44;;;;;;;29.13;26.75;;;10.80;99.90;;;;;;4975345;28;20091;-77
2021/10/07 06:18:10;;;;;;;26.55;24.55;;;10.80;99.90;;;;;;4975585;28;20061;-77
2021/10/07 06:20:37;;;;;;;26.88;24.58;;;10.80;99.90;;;;;;4975451;28;20039;-77
2021/10/07 06:23:04;;;;;;;29.02;26.20;;;10.80;99.90;;;;;;4975718;28;20026;-77
2021/10/07 06:25:31;;;;;;;24.73;22.77;;;10.80;99.90;;;;;;4976064;28;20039;-77
2021/10/07 06:27:58;;;;;;;25.77;23.48;;;10.80;99.90;;;;;;4975101;28;20041;-77
2021/10/07 06:30:24;;;;;;;26.25;24.35;;;10.80;99.90;;;;;;4974616;28;20392;-77
2021/10/07 06:32:50;;;;;;;30.50;28.23;;;10.90;99.90;;;;;;4975394;28;20050;-77
2021/10/07 06:35:17;;;;;;;28.65;26.27;;;10.90;99.90;;;;;;4975307;28;20392;-77
2021/10/07 06:37:44;;;;;;;28.85;26.52;;;11.00;99.90;;;;;;4974865;28;20492;-77
2021/10/07 06:40:10;;;;;;;26.75;24.50;;;11.00;99.90;;;;;;4975348;28;20027;-77
2021/10/07 06:42:37;;;;;;;27.10;24.75;;;11.00;99.90;;;;;;4974675;28;20031;-77
2021/10/07 06:45:05;;;;;;;31.65;22.05;;;10.90;99.90;;;;;;4974958;28;20038;-77
2021/10/07 06:47:32;;;;;;;21.40;19.50;;;11.00;99.90;;;;;;4974328;28;20043;-77
2021/10/07 06:50:03;;;;;;;21.83;20.00;;;11.00;99.90;;;;;;4983564;28;20448;-77
2021/10/07 06:52:29;;;;;;;21.52;19.80;;;11.00;99.90;;;;;;4974751;28;20034;-77
2021/10/07 06:54:56;;;;;;;23.55;19.88;;;11.00;99.90;;;;;;4975009;28;20038;-76
2021/10/07 06:57:22;;;;;;;21.08;19.15;;;11.10;99.90;;;;;;4975781;28;20031;-77
2021/10/07 06:59:49;;;;;;;20.65;19.02;;;11.10;99.90;;;;;;4983509;28;20034;-77
2021/10/07 07:02:15;;;;;;;20.40;17.58;;;11.00;99.90;;;;;;4971794;28;20051;-77
2021/10/07 07:04:41;;;;;;;20.77;19.27;;;11.00;99.90;;;;;;4973269;28;20034;-77
2021/10/07 07:07:07;;;;;;;20.33;18.67;;;11.00;99.90;;;;;;4979629;28;20039;-77
2021/10/07 07:09:33;;;;;;;20.88;18.98;;;11.10;99.90;;;;;;4956288;28;20035;-76
2021/10/07 07:12:00;;;;;;;20.42;18.58;;;11.10;99.90;;;;;;4974245;28;20476;-77
2021/10/07 07:14:26;;;;;;;22.15;20.08;;;11.10;99.90;;;;;;4974047;28;20328;-76
2021/10/07 07:16:52;;;;;;;21.10;19.27;;;11.20;99.90;;;;;;4975089;28;20023;-77
2021/10/07 07:19:21;;;;;;;19.70;18.10;;;11.20;99.90;;;;;;4975233;28;20112;-79
2021/10/07 07:21:50;;;;;;;22.73;21.08;;;11.30;99.90;;;;;;4974723;28;20026;-77
2021/10/07 07:24:17;;;;;;;23.55;21.45;;;11.30;99.90;;;;;;4976134;28;20030;-76
2021/10/07 07:26:43;;;;;;;25.50;23.48;;;11.30;99.90;;;;;;4982815;28;20039;-77
2021/10/07 07:29:09;;;;;;;22.58;20.67;;;11.40;99.90;;;;;;4974682;28;20047;-76
2021/10/07 07:31:36;;;;;;;23.25;21.48;;;11.30;99.90;;;;;;4973517;28;20046;-76
2021/10/07 07:34:02;;;;;;;22.88;21.17;;;11.40;99.90;;;;;;4974065;28;20027;-76
2021/10/07 07:36:28;;;;;;;24.23;22.17;;;11.50;99.90;;;;;;4972808;28;20042;-76
2021/10/07 07:38:56;;;;;;;22.67;20.58;;;11.60;99.90;;;;;;4974740;28;20384;-76
2021/10/07 07:41:22;;;;;;;20.40;18.70;;;11.50;99.90;;;;;;4974459;28;20030;-76
2021/10/07 07:43:48;;;;;;;19.85;18.23;;;11.60;99.90;;;;;;4974104;28;20487;-78
2021/10/07 07:46:18;;;;;;;18.60;17.08;;;11.50;99.90;;;;;;4973941;28;20043;-77
2021/10/07 07:48:47;;;;;;;21.13;19.33;;;11.50;99.90;;;;;;4956578;28;20039;-77
2021/10/07 07:51:14;;;;;;;21.80;20.00;;;11.60;99.90;;;;;;4973971;28;20535;-77
2021/10/07 07:53:40;;;;;;;18.40;16.90;;;11.70;99.90;;;;;;4974025;28;20114;-77
2021/10/07 07:56:06;;;;;;;19.88;17.88;;;11.80;99.90;;;;;;4973814;28;20743;-79
2021/10/07 07:58:33;;;;;;;17.08;15.75;;;11.80;99.90;;;;;;4972887;28;20039;-77
2021/10/07 08:01:00;;;;;;;17.98;16.52;;;12.10;99.90;;;;;;4973501;28;20038;-77
2021/10/07 08:03:27;;;;;;;17.55;16.05;;;12.30;99.90;;;;;;4973347;28;20058;-77
2021/10/07 08:05:54;;;;;;;16.67;15.18;;;12.60;99.90;;;;;;4973717;28;20039;-78
2021/10/07 08:08:20;;;;;;;15.50;14.27;;;12.90;99.90;;;;;;4955411;28;20377;-78
2021/10/07 08:10:46;;;;;;;11.23;10.23;;;13.50;99.90;;;;;;4972871;28;20027;-78
2021/10/07 08:13:12;;;;;;;10.88;9.88;;;14.10;99.90;;;;;;4973146;28;20035;-76
2021/10/07 08:15:39;;;;;;;10.95;9.93;;;14.10;99.90;;;;;;4972820;28;20074;-77
2021/10/07 08:18:05;;;;;;;9.88;7.80;;;14.50;99.90;;;;;;4973543;28;20200;-77
2021/10/07 08:20:32;;;;;;;5.93;4.30;;;15.40;99.90;;;;;;4960084;28;20027;-78
2021/10/07 08:22:59;;;;;;;6.53;4.40;;;16.30;96.90;;;;;;4973753;28;20038;-78
2021/10/07 08:25:25;;;;;;;7.40;5.47;;;17.20;94.70;;;;;;4973282;28;20031;-77
2021/10/07 08:27:51;;;;;;;4.22;3.65;;;18.00;91.30;;;;;;4973511;28;20047;-78
2021/10/07 08:30:18;;;;;;;4.43;3.53;;;18.70;85.30;;;;;;4972732;28;20468;-78
2021/10/07 08:32:45;;;;;;;6.25;2.85;;;19.20;79.30;;;;;;4972758;28;20039;-78
2021/10/07 08:35:11;;;;;;;4.72;2.90;;;18.30;79.60;;;;;;4973893;28;20472;-78
2021/10/07 08:37:38;;;;;;;1.63;1.45;;;18.60;81.80;;;;;;4982097;28;20035;-78
2021/10/07 08:40:09;;;;;;;2.83;2.53;;;19.30;71.50;;;;;;4984452;28;20035;-78
2021/10/07 08:42:37;;;;;;;2.95;2.65;;;19.90;71.30;;;;;;4977950;28;20038;-79
2021/10/07 08:45:05;;;;;;;3.20;2.90;;;18.70;69.90;;;;;;4974453;28;20034;-78
2021/10/07 08:47:31;;;;;;;3.33;3.03;;;18.40;72.60;;;;;;4985702;28;20041;-78
2021/10/07 08:49:58;;;;;;;3.53;3.22;;;19.10;70.00;;;;;;4973557;28;20031;-76
2021/10/07 08:52:24;;;;;;;4.20;2.88;;;18.20;71.30;;;;;;4973220;28;20035;-76
2021/10/07 08:54:51;;;;;;;9.07;4.25;;;17.30;77.00;;;;;;4973292;28;20039;-77
2021/10/07 08:57:18;;;;;;;7.30;4.65;;;15.90;79.60;;;;;;4973537;28;20031;-75
2021/10/07 08:59:44;;;;;;;5.63;4.82;;;15.50;83.20;;;;;;4972624;28;20396;-75
2021/10/07 09:02:29;;;;;;;4.10;3.72;;;15.50;86.70;;;;;;4973344;28;20051;-75
2021/10/07 09:05:12;;;;;;;4.43;3.53;;;15.80;82.60;;;;;;4973050;28;20047;-75
2021/10/07 09:08:05;;;;;;;2.83;2.10;;;15.60;82.90;;;;;;4972488;28;20517;-77
2021/10/07 09:10:50;;;;;;;4.32;1.80;;;14.90;81.90;;;;;;4972779;28;20476;-77
2021/10/07 09:13:22;;;;;;;2.47;1.80;;;14.40;82.80;;;;;;4973679;28;20027;-76
2021/10/07 09:15:51;;;;;;;2.25;2.05;;;14.20;86.50;;;;;;4973019;28;20045;-77
2021/10/07 09:18:19;;;;;;;4.53;4.07;;;14.10;88.60;;;;;;4974213;28;20045;-77
2021/10/07 09:20:49;;;;;;;5.38;4.88;;;13.60;90.70;;;;;;4964603;28;20522;-77
2021/10/07 09:23:24;;;;;;;7.40;4.97;;;13.50;94.00;;;;;;4973862;28;20031;-77
2021/10/07 09:26:11;;;;;;;7.20;5.13;;;13.30;97.30;;;;;;4974074;28;20448;-78
2021/10/07 09:28:53;;;;;;;5.85;4.85;;;13.20;97.30;;;;;;4971337;28;20057;-77
2021/10/07 09:31:26;;;;;;;4.65;4.25;;;13.10;96.70;;;;;;4969811;28;20170;-78
2021/10/07 09:33:55;;;;;;;4.40;3.80;;;13.20;96.90;;;;;;4978793;28;20042;-77
2021/10/07 09:36:22;;;;;;;5.20;4.68;;;13.30;97.30;;;;;;4978498;28;20149;-80
2021/10/07 09:38:51;;;;;;;9.48;5.40;;;13.60;98.10;;;;;;4977991;28;20072;-76
2021/10/07 09:41:25;;;;;;;5.07;4.57;;;13.90;96.80;;;;;;4977727;28;20034;-76
2021/10/07 09:43:56;;;;;;;3.97;3.65;;;13.80;95.60;;;;;;4977601;28;20483;-77
2021/10/07 09:46:41;;;;;;;;;;;13.90;95.60;;;;;;4960644;28;20034;-75
2021/10/07 09:49:17;;;;;;;6.38;3.95;;;14.10;94.20;;;;;;4977038;28;19918;-75
2021/10/07 09:51:50;;;;;;;6.97;3.05;;;14.40;91.70;;;;;;4977231;28;20112;-75
2021/10/07 09:54:27;;;;;;;4.25;2.47;;;14.70;88.00;;;;;;4963467;28;20034;-75
2021/10/07 09:56:59;;;;;;;5.47;2.90;;;14.50;85.50;;;;;;4976241;28;20042;-76
2021/10/07 09:59:27;;;;;;;3.83;2.60;;;14.60;87.20;;;;;;4976470;28;20038;-75
2021/10/07 10:01:56;;;;;;;4.43;2.40;;;14.60;84.90;;;;;;4976260;28;20420;-76
2021/10/07 10:04:23;;;;;;;3.13;2.83;;;14.60;83.50;;;;;;4958320;28;20038;-76
2021/10/07 10:06:50;;;;;;;3.72;2.42;;;14.60;85.70;;;;;;4974206;28;20079;-76
2021/10/07 10:09:21;;;;;;;2.53;2.30;;;14.50;86.30;;;;;;4975544;28;20030;-75
2021/10/07 10:11:47;;;;;;;2.53;2.28;;;14.40;85.90;;;;;;4975391;28;20464;-76
2021/10/07 10:14:15;;;;;;;2.30;2.10;;;14.20;87.60;;;;;;4975647;28;20499;-74
2021/10/07 10:16:42;;;;;;;2.95;2.55;;;14.10;88.80;;;;;;4958376;28;20065;-76
2021/10/07 10:19:10;;;;;;;3.83;2.70;;;14.00;89.30;;;;;;4963427;28;20051;-75
2021/10/07 10:21:40;;;;;;;3.50;3.20;;;14.00;88.90;;;;;;4986308;28;20034;-76
2021/10/07 10:24:10;;;;;;;3.58;3.10;;;14.10;90.40;;;;;;4961508;28;20047;-76
2021/10/07 10:26:38;;;;;;;2.78;2.38;;;14.10;91.80;;;;;;4975225;28;20045;-76
2021/10/07 10:29:21;;;;;;;4.32;2.92;;;14.10;92.70;;;;;;4975528;28;20479;-76
2021/10/07 10:31:52;;;;;;;3.58;3.13;;;14.10;92.50;;;;;;4975870;28;20038;-76
2021/10/07 10:34:20;;;;;;;4.72;3.22;;;13.90;92.20;;;;;;4957833;28;20047;-76
2021/10/07 10:36:57;;;;;;;4.38;3.03;;;14.10;92.60;;;;;;4974609;28;20050;-76
2021/10/07 10:39:37;;;;;;;3.20;2.88;;;14.20;92.20;;;;;;4975493;28;20034;-77
2021/10/07 10:42:08;;;;;;;5.15;3.17;;;14.20;91.40;;;;;;4975128;28;20031;-77
2021/10/07 10:44:37;;;;;;;3.38;3.08;;;14.10;90.90;;;;;;4957289;28;20031;-77
2021/10/07 10:47:06;;;;;;;6.93;3.10;;;14.10;90.00;;;;;;4974937;28;20476;-77
2021/10/07 10:49:59;;;;;;;3.17;2.85;;;14.30;89.30;;;;;;4974916;28;20476;-77
2021/10/07 10:52:34;;;;;;;3.60;3.10;;;14.30;87.70;;;;;;4975059;28;20046;-75
2021/10/07 10:55:04;;;;;;;3.53;3.22;;;14.40;89.20;;;;;;4991933;28;20037;-75
2021/10/07 10:57:34;;;;;;;3.13;2.72;;;14.70;85.00;;;;;;4974658;28;20046;-75
2021/10/07 11:00:24;;;;;;;2.97;2.53;;;14.80;83.90;;;;;;4974886;28;20041;-75
2021/10/07 11:02:54;;;;;;;3.70;2.88;;;14.90;84.60;;;;;;4973746;28;20051;-74
2021/10/07 11:05:26;;;;;;;5.85;3.05;;;15.10;82.60;;;;;;4974414;28;20043;-75
2021/10/07 11:08:11;;;;;;;5.35;3.10;;;15.00;82.40;;;;;;4972659;28;20052;-75
2021/10/07 11:10:42;;;;;;;4.15;3.05;;;14.90;81.80;;;;;;4974263;28;20041;-75
2021/10/07 11:13:16;;;;;;;3.35;3.00;;;14.90;83.70;;;;;;4973942;28;20035;-75
2021/10/07 11:15:47;;;;;;;3.90;2.72;;;15.10;82.60;;;;;;4973967;28;20035;-75
2021/10/07 11:18:13;;;;;;;3.78;3.40;;;14.80;82.80;;;;;;4973208;28;20043;-75
2021/10/07 11:20:39;;;;;;;3.05;2.70;;;14.90;83.00;;;;;;4973777;28;20049;-75
2021/10/07 11:23:08;;;;;;;3.05;2.75;;;14.80;84.40;;;;;;4957397;28;20034;-74
2021/10/07 11:25:41;;;;;;;3.88;3.40;;;14.50;84.50;;;;;;4956471;28;20046;-75
2021/10/07 11:28:08;;;;;;;3.20;2.90;;;14.70;83.80;;;;;;4974460;28;20031;-75
2021/10/07 11:30:37;;;;;;;3.40;3.10;;;15.00;82.60;;;;;;4974418;28;20027;-74
2021/10/07 11:33:05;;;;;;;3.05;2.40;;;15.00;81.90;;;;;;4981597;28;20448;-75
2021/10/07 11:35:32;;;;;;;3.80;3.17;;;15.20;80.60;;;;;;4971541;28;20053;-75
2021/10/07 11:38:03;;;;;;;2.33;2.13;;;15.10;81.30;;;;;;4978913;28;20052;-75
2021/10/07 11:40:51;;;;;;;3.25;2.55;;;15.10;81.70;;;;;;4979515;28;20043;-75
2021/10/07 11:43:29;;;;;;;3.60;3.13;;;15.40;80.90;;;;;;4979642;28;20030;-74
2021/10/07 11:46:02;;;;;;;3.22;2.55;;;15.90;79.20;;;;;;4973942;28;20042;-75
2021/10/07 11:48:28;;;;;;;3.05;2.03;;;16.20;77.00;;;;;;4973588;28;20031;-74
2021/10/07 11:50:58;;;;;;;2.35;1.92;;;16.40;76.00;;;;;;4972801;28;20480;-75
2021/10/07 11:53:41;;;;;;;2.35;2.08;;;16.30;74.50;;;;;;4974465;28;20026;-75
2021/10/07 11:56:10;;;;;;;1.95;1.80;;;16.40;72.80;;;;;;4973619;28;20045;-75
2021/10/07 11:58:36;;;;;;;2.05;1.58;;;16.60;75.90;;;;;;4973200;28;20030;-76
2021/10/07 12:01:03;;;;;;;1.75;1.40;;;17.00;75.30;;;;;;4981756;28;20045;-73
2021/10/07 12:03:37;;;;;;;2.05;1.42;;;17.40;72.30;;;;;;4973804;28;20055;-74
2021/10/07 12:06:12;;;;;;;1.15;1.05;;;17.10;72.00;;;;;;4973383;28;20039;-74
2021/10/07 12:08:47;;;;;;;1.88;1.20;;;16.50;71.30;;;;;;4973298;28;20409;-75
2021/10/07 12:11:25;;;;;;;1.15;0.90;;;16.00;71.90;;;;;;4973670;28;20031;-77
2021/10/07 12:13:56;;;;;;;1.42;0.95;;;15.50;74.00;;;;;;4975363;28;20039;-75
2021/10/07 12:16:28;;;;;;;1.17;0.90;;;15.30;74.70;;;;;;4980935;28;20035;-75
2021/10/07 12:18:56;;;;;;;2.65;1.30;;;15.40;76.80;;;;;;4959662;28;20050;-76
2021/10/07 12:21:25;;;;;;;1.17;0.75;;;15.40;77.10;;;;;;4979524;28;20050;-75
2021/10/07 12:24:01;;;;;;;3.92;1.20;;;15.40;76.40;;;;;;4980115;28;20143;-77
2021/10/07 12:26:36;;;;;;;1.27;1.00;;;15.40;76.20;;;;;;4973310;28;20471;-76
2021/10/07 12:29:07;;;;;;;1.10;1.02;;;15.40;76.70;;;;;;4973082;28;20046;-75
2021/10/07 12:31:34;;;;;;;1.75;1.33;;;15.40;78.10;;;;;;4972285;28;20360;-76
2021/10/07 12:34:04;;;;;;;1.98;1.17;;;15.60;77.20;;;;;;4955479;28;20035;-75
2021/10/07 12:36:50;;;;;;;5.17;4.43;;;15.70;76.30;;;;;;4973130;28;20110;-75
2021/10/07 12:39:29;;;;;;;1.85;1.40;;;15.70;76.50;;;;;;4973972;28;20364;-80
2021/10/07 12:41:57;;;;;;;1.13;1.02;;;15.70;76.50;;;;;;4974759;28;20048;-75
2021/10/07 12:44:29;;;;;;;1.08;0.90;;;15.70;75.70;;;;;;4973353;28;20027;-75
2021/10/07 12:47:00;;;;;;;1.70;1.60;;;15.60;76.30;;;;;;4973256;28;20039;-75
2021/10/07 12:49:44;;;;;;;1.52;1.17;;;15.70;76.50;;;;;;4973298;28;20038;-76